Impacts METAR Board
IDs:

KLGA - New York/La Guardia, NY, US

Updated at: 1000 UTC 22 May 2018
Potential Impact None Slight Moderate High
Time 21/22Z 21/23Z 22/00Z 22/01Z 22/02Z 22/03Z 22/04Z 22/05Z 22/06Z 22/07Z 22/08Z 22/09Z 22/10Z
Temp73 71 67 66 66 66 67 66 65 65 65 65 65
Dewpt47 48 49 48 49 48 46 44 44 45 46 47 49
Altim30.13 30.13 30.15 30.15 30.16 30.15 30.15 30.16 30.15 30.16 30.15 30.14 30.14
VIS10 10 10 10 10 10 10 10 10 10 10 10 10
CIG-- -- 250 250 250 250 250 250 250 250 160 210 170
CoverSCTSCTBKNBKNBKNBKNBKNBKNBKNBKNOVCOVCBKN
FltCatVFRVFRVFRVFRVFRVFRVFRVFRVFRVFRVFRVFRVFR
WX--------------------------
WDir170180170180190200210210180200180160180
WSpd11 9 9 8 7 4 4 4 5 5 4 3 5
WGst-- -- -- -- -- -- -- -- -- -- -- -- --
Raw hourly METARs
KLGA 212151Z 17011KT 10SM SCT250 23/08 A3013 RMK AO2 SLP203 T02280083
KLGA 212251Z 18009KT 10SM SCT250 22/09 A3013 RMK AO2 SLP204 T02170089
KLGA 212351Z 17009KT 10SM BKN250 19/09 A3015 RMK AO2 SLP209 T01940094 10261 20194 53007
KLGA 220051Z 18008KT 10SM BKN250 19/09 A3015 RMK AO2 SLP208 T01890089
KLGA 220151Z 19007KT 10SM BKN250 19/09 A3016 RMK AO2 SLP211 T01890094
KLGA 220251Z 20004KT 10SM BKN250 19/09 A3015 RMK AO2 SLP209 T01890089 58000
KLGA 220351Z 21004KT 10SM BKN250 19/08 A3015 RMK AO2 SLP210 T01940078
KLGA 220451Z 21004KT 10SM BKN250 19/07 A3016 RMK AO2 SLP211 T01890067 402610156
KLGA 220551Z 18005KT 10SM BKN250 18/07 A3015 RMK AO2 SLP209 T01830067 10200 20183 50001
KLGA 220651Z 20005KT 10SM FEW200 BKN250 18/07 A3016 RMK AO2 SLP211 T01830072
KLGA 220751Z 18004KT 10SM BKN160 OVC250 18/08 A3015 RMK AO2 SLP210 T01830078
KLGA 220851Z 16003KT 10SM SCT160 BKN210 OVC250 18/08 A3014 RMK AO2 SLP207 T01830083 58002
KLGA 220951Z 18005KT 10SM SCT150 BKN170 BKN250 18/09 A3014 RMK AO2 SLP205 T01830094



Page loaded:  10:15 UTC  |   03:15 AM Pacific  |   04:15 AM Mountain  |   05:15 AM Central  |   06:15 AM Eastern

 

ADVISORIES

FORECASTS

FORECASTS

OBSERVATIONS

USER TOOLS

ABOUT US